Time;durP1;ratioP1;P1;durP2;ratioP2;P2;SDS_P1;SDS_P2;PMS_P1;PMS_P2;Temp;Humidity;BMP_temperature;BMP_pressure;BME280_temperature;BME280_humidity;BME280_pressure;Samples;Min_cycle;Max_cycle;Signal;HPM_P1;HPM_P2
2024/01/12 00:01:15;;;;;;;61.25;39.47;;;;;;;-2.11;100.00;100086.81;5088454;28;20056;-74
2024/01/12 00:03:40;;;;;;;57.58;36.47;;;;;;;-2.15;100.00;100075.09;5087966;28;20451;-74
2024/01/12 00:06:06;;;;;;;47.78;31.92;;;;;;;-2.12;100.00;100106.72;5088237;28;20028;-73
2024/01/12 00:08:32;;;;;;;45.85;28.90;;;;;;;-1.97;100.00;100097.09;5088177;28;20032;-73
2024/01/12 00:10:58;;;;;;;43.72;28.58;;;;;;;-1.95;100.00;100123.72;5068954;28;20024;-74
2024/01/12 00:13:23;;;;;;;40.33;26.98;;;;;;;-2.01;100.00;100100.31;5069881;28;20024;-73
2024/01/12 00:15:49;;;;;;;42.00;27.63;;;;;;;-2.20;100.00;100094.03;5069820;28;20058;-73
2024/01/12 00:18:14;;;;;;;44.88;28.02;;;;;;;-2.06;100.00;100099.38;5087426;28;20077;-72
2024/01/12 00:20:43;;;;;;;45.55;29.05;;;;;;;-2.47;100.00;100048.59;5087946;28;20406;-72
2024/01/12 00:23:09;;;;;;;48.22;31.83;;;;;;;-2.17;100.00;100098.25;5087445;28;20097;-76
2024/01/12 00:25:35;;;;;;;49.58;31.83;;;;;;;-2.15;100.00;100097.50;5088445;28;20016;-72
2024/01/12 00:28:00;;;;;;;48.65;32.22;;;;;;;-2.25;100.00;100100.56;5088833;28;20032;-72
2024/01/12 00:30:25;;;;;;;49.45;33.05;;;;;;;-2.07;100.00;100097.69;5069450;28;20032;-74
2024/01/12 00:32:51;;;;;;;53.35;32.30;;;;;;;-2.30;100.00;100106.25;5067856;28;20498;-72
2024/01/12 00:35:16;;;;;;;54.05;33.67;;;;;;;-2.48;100.00;100054.38;5087721;28;20072;-73
2024/01/12 00:37:42;;;;;;;52.42;32.65;;;;;;;-2.05;100.00;100109.38;5088298;28;20410;-72
2024/01/12 00:40:08;;;;;;;57.70;33.97;;;;;;;-2.46;100.00;100064.34;5086971;28;20031;-74
2024/01/12 00:42:34;;;;;;;50.95;31.58;;;;;;;-2.19;100.00;100098.22;5087996;28;20502;-72
2024/01/12 00:45:00;;;;;;;50.08;30.85;;;;;;;-2.10;100.00;100112.56;5069730;28;20048;-73
2024/01/12 00:47:25;;;;;;;48.78;31.10;;;;;;;-2.09;100.00;100094.31;5069756;28;20039;-74
2024/01/12 00:49:51;;;;;;;52.80;32.17;;;;;;;-2.67;100.00;100042.25;5069513;28;20032;-74
2024/01/12 00:52:16;;;;;;;51.53;32.80;;;;;;;-1.99;100.00;100126.09;5087999;28;20028;-73
2024/01/12 00:54:45;;;;;;;52.35;31.20;;;;;;;-2.45;100.00;100051.94;5087691;28;20032;-74
2024/01/12 00:57:10;;;;;;;52.30;31.55;;;;;;;-2.24;100.00;100102.25;5070626;28;20050;-73
2024/01/12 00:59:36;;;;;;;45.92;28.88;;;;;;;-2.53;100.00;100070.81;5091397;28;20761;-74
2024/01/12 01:02:01;;;;;;;47.55;27.42;;;;;;;-2.57;100.00;100059.09;5091758;28;20039;-74
2024/01/12 01:04:28;;;;;;;47.28;28.42;;;;;;;-1.92;100.00;100146.19;5091355;28;20418;-74
2024/01/12 01:06:53;;;;;;;42.70;26.45;;;;;;;-2.63;100.00;100058.13;5073315;28;20024;-74
2024/01/12 01:09:19;;;;;;;45.25;26.77;;;;;;;-2.63;100.00;100050.66;5091090;28;20024;-77
2024/01/12 01:11:44;;;;;;;43.40;26.67;;;;;;;-2.44;100.00;100073.56;5090453;28;20051;-73
2024/01/12 01:14:10;;;;;;;47.95;25.30;;;;;;;-2.16;100.00;100125.69;5091052;28;20531;-74
2024/01/12 01:16:35;;;;;;;42.67;25.33;;;;;;;-2.37;100.00;100090.31;5090583;28;20028;-74
2024/01/12 01:19:00;;;;;;;43.35;25.83;;;;;;;-2.17;100.00;100119.03;5072040;28;20021;-74
2024/01/12 01:21:26;;;;;;;39.90;24.10;;;;;;;-2.40;100.00;100105.19;5072755;28;20036;-74
2024/01/12 01:23:52;;;;;;;40.20;24.15;;;;;;;-2.16;100.00;100095.81;5090704;28;20036;-74
2024/01/12 01:26:17;;;;;;;36.65;22.80;;;;;;;-2.36;100.00;100092.00;5091535;28;20402;-75
2024/01/12 01:28:42;;;;;;;37.17;23.63;;;;;;;-2.54;100.00;100040.94;5090553;28;20051;-74
2024/01/12 01:31:08;;;;;;;39.10;23.55;;;;;;;-2.56;100.00;100050.84;5091054;28;20024;-74
2024/01/12 01:33:33;;;;;;;38.33;23.25;;;;;;;-2.33;100.00;100079.63;5090882;28;20034;-74
2024/01/12 01:35:59;;;;;;;39.38;23.48;;;;;;;-2.75;100.00;100024.66;5072021;28;20040;-74
2024/01/12 01:38:24;;;;;;;38.53;23.58;;;;;;;-2.40;100.00;100082.78;5090504;28;20040;-74
2024/01/12 01:40:51;;;;;;;42.17;23.40;;;;;;;-2.46;100.00;100084.25;5090578;28;20028;-74
2024/01/12 01:43:16;;;;;;;40.10;22.70;;;;;;;-2.63;100.00;100035.75;5091134;28;20024;-73
2024/01/12 01:45:41;;;;;;;38.25;22.30;;;;;;;-2.39;100.00;100064.53;5090491;28;20048;-74
2024/01/12 01:48:08;;;;;;;40.05;23.25;;;;;;;-2.70;100.00;100034.75;5090209;28;20107;-73
2024/01/12 01:50:35;;;;;;;38.10;22.50;;;;;;;-2.69;100.00;100047.22;5071670;28;20043;-73
2024/01/12 01:53:13;;;;;;;38.35;22.08;;;;;;;-2.75;100.00;100027.16;5072345;28;20028;-74
2024/01/12 01:55:38;;;;;;;36.63;21.90;;;;;;;-2.94;100.00;100005.13;5090725;28;20020;-73
2024/01/12 01:58:04;;;;;;;35.22;21.40;;;;;;;-2.83;100.00;99997.91;5090338;28;20517;-74
2024/01/12 02:00:31;;;;;;;35.80;21.90;;;;;;;-2.85;100.00;100021.88;5072076;28;20028;-74
2024/01/12 02:02:56;;;;;;;38.47;21.92;;;;;;;-3.11;100.00;99961.56;5089922;28;20086;-73
2024/01/12 02:05:27;;;;;;;37.40;21.73;;;;;;;-2.83;100.00;100032.72;5090749;28;20483;-73
2024/01/12 02:07:52;;;;;;;34.35;22.25;;;;;;;-2.86;100.00;100020.22;5089560;28;20409;-73
2024/01/12 02:10:18;;;;;;;38.25;21.60;;;;;;;-2.58;100.00;100045.00;5089130;28;20032;-73
2024/01/12 02:12:43;;;;;;;37.55;20.95;;;;;;;-2.48;100.00;100069.31;5089870;28;20040;-72
2024/01/12 02:15:10;;;;;;;39.25;21.75;;;;;;;-2.79;100.00;100045.28;5072215;28;20115;-73
2024/01/12 02:17:36;;;;;;;40.38;21.55;;;;;;;-2.58;100.00;100045.00;5070916;28;20036;-73
2024/01/12 02:20:02;;;;;;;36.65;21.45;;;;;;;-3.08;100.00;99980.69;5090214;28;20024;-72
2024/01/12 02:22:28;;;;;;;35.00;20.92;;;;;;;-2.86;100.00;100035.16;5090373;28;20032;-73
2024/01/12 02:24:53;;;;;;;36.72;22.17;;;;;;;-2.91;100.00;100024.25;5090349;28;20474;-73
2024/01/12 02:27:19;;;;;;;35.42;21.90;;;;;;;-2.78;100.00;100036.19;5089599;28;20024;-79
2024/01/12 02:29:46;;;;;;;36.25;21.48;;;;;;;-3.10;100.00;99987.25;5070777;28;20537;-74
2024/01/12 02:32:11;;;;;;;37.88;22.05;;;;;;;-3.06;100.00;99989.88;5089574;28;20035;-73
2024/01/12 02:34:37;;;;;;;41.25;23.48;;;;;;;-2.98;100.00;100005.00;5089514;28;20028;-73
2024/01/12 02:37:02;;;;;;;40.63;24.35;;;;;;;-2.88;100.00;100025.16;5071025;28;20054;-73
2024/01/12 02:39:28;;;;;;;44.22;25.27;;;;;;;-2.76;100.00;100044.53;5070738;28;21777;-73
2024/01/12 02:41:57;;;;;;;42.28;24.73;;;;;;;-2.80;100.00;100037.78;5089414;28;20051;-73
2024/01/12 02:44:26;;;;;;;40.90;24.02;;;;;;;-3.12;100.00;99989.72;5089378;28;20032;-74
2024/01/12 02:46:57;;;;;;;45.00;25.45;;;;;;;-2.69;100.00;100048.84;5089549;28;20118;-73
2024/01/12 02:49:23;;;;;;;40.90;24.83;;;;;;;-2.92;100.00;100027.53;5070259;28;20035;-73
2024/01/12 02:51:48;;;;;;;43.80;24.83;;;;;;;-2.83;100.00;100016.16;5089868;28;20036;-72
2024/01/12 02:54:14;;;;;;;41.42;25.40;;;;;;;-3.21;100.00;99999.41;5089746;28;20032;-72
2024/01/12 02:56:50;;;;;;;46.10;26.25;;;;;;;-3.09;100.00;100008.84;5089283;28;20028;-72
2024/01/12 02:59:16;;;;;;;44.90;26.45;;;;;;;-3.52;100.00;99984.47;5070690;28;20107;-72
2024/01/12 03:01:41;;;;;;;49.63;27.67;;;;;;;-3.38;100.00;99994.78;5089666;28;20475;-71
2024/01/12 03:04:06;;;;;;;47.25;28.30;;;;;;;-3.11;100.00;100013.75;5088449;28;20050;-75
2024/01/12 03:06:32;;;;;;;51.80;30.20;;;;;;;-3.15;100.00;100041.81;5089429;28;20080;-73
2024/01/12 03:08:57;;;;;;;54.40;28.55;;;;;;;-2.89;100.00;100077.31;5089058;28;20107;-73
2024/01/12 03:11:23;;;;;;;50.60;27.88;;;;;;;-2.83;100.00;100075.84;5089193;28;20040;-72
2024/01/12 03:13:48;;;;;;;48.95;28.08;;;;;;;-2.80;100.00;100095.84;5088738;28;20413;-74
2024/01/12 03:16:21;;;;;;;49.92;28.40;;;;;;;-2.95;100.00;100092.09;5070866;28;20138;-73
2024/01/12 03:18:49;;;;;;;52.53;29.55;;;;;;;-3.12;100.00;100033.59;5087336;28;20036;-73
2024/01/12 03:21:16;;;;;;;53.45;32.38;;;;;;;-2.93;100.00;100092.97;5070318;28;20035;-72
2024/01/12 03:23:41;;;;;;;53.17;31.42;;;;;;;-2.96;100.00;100080.44;5091215;28;20093;-72
2024/01/12 03:26:06;;;;;;;53.50;31.05;;;;;;;-3.33;100.00;99990.78;5094561;28;20028;-72
2024/01/12 03:28:33;;;;;;;51.47;31.05;;;;;;;-3.05;100.00;100035.47;5090810;28;20085;-72
2024/01/12 03:30:59;;;;;;;50.17;27.75;;;;;;;-3.32;100.00;100002.41;5070437;28;20093;-72
2024/01/12 03:33:24;;;;;;;45.70;27.67;;;;;;;-3.24;100.00;100020.84;5088734;28;21321;-72
2024/01/12 03:35:50;;;;;;;49.45;26.80;;;;;;;-3.28;100.00;100006.66;5088400;28;20070;-74
2024/01/12 03:38:15;;;;;;;47.25;27.10;;;;;;;-3.40;100.00;99969.06;5070170;28;20111;-72
2024/01/12 03:40:40;;;;;;;54.03;30.17;;;;;;;-3.28;100.00;100004.16;5070412;28;20028;-74
2024/01/12 03:43:06;;;;;;;52.75;29.63;;;;;;;-3.19;100.00;99972.13;5069427;28;20035;-74
2024/01/12 03:45:31;;;;;;;53.03;30.20;;;;;;;-3.08;100.00;100003.06;5069461;28;20401;-72
2024/01/12 03:47:56;;;;;;;54.72;30.02;;;;;;;-3.33;100.00;99951.03;5069707;28;20028;-73
2024/01/12 03:50:22;;;;;;;51.05;29.92;;;;;;;-3.06;100.00;99999.81;5088501;28;20107;-73
2024/01/12 03:52:47;;;;;;;55.92;30.55;;;;;;;-3.32;100.00;99963.50;5088401;28;20039;-73
2024/01/12 03:55:13;;;;;;;49.78;28.95;;;;;;;-3.02;100.00;100018.13;5070071;28;20032;-73
2024/01/12 03:57:38;;;;;;;51.47;29.33;;;;;;;-3.70;100.00;99945.06;5088046;28;20109;-73
2024/01/12 04:00:05;;;;;;;53.25;29.58;;;;;;;-4.08;100.00;99967.13;5070305;28;20047;-75
2024/01/12 04:02:31;;;;;;;45.53;27.55;;;;;;;-3.85;100.00;99956.22;5068137;28;20032;-72
2024/01/12 04:04:56;;;;;;;53.67;29.23;;;;;;;-3.58;100.00;99986.78;5088334;28;20059;-74
2024/01/12 04:07:22;;;;;;;48.25;28.25;;;;;;;-3.57;100.00;99994.28;5070607;28;20036;-74
2024/01/12 04:09:48;;;;;;;56.67;28.73;;;;;;;-3.98;100.00;99964.94;5088484;28;20089;-74
2024/01/12 04:12:13;;;;;;;46.20;27.25;;;;;;;-3.86;100.00;99986.81;5070636;28;20119;-72
2024/01/12 04:14:44;;;;;;;48.10;26.50;;;;;;;-3.99;100.00;99964.91;5070570;28;20040;-73
2024/01/12 04:17:09;;;;;;;49.53;27.83;;;;;;;-3.69;100.00;99988.13;5069392;28;20047;-73
2024/01/12 04:19:34;;;;;;;46.83;26.58;;;;;;;-3.71;100.00;99980.66;5103980;28;20066;-72
2024/01/12 04:22:00;;;;;;;45.42;26.52;;;;;;;-3.60;100.00;100019.03;5086283;28;20399;-74
2024/01/12 04:24:25;;;;;;;51.75;28.50;;;;;;;-3.78;100.00;100005.22;5087680;28;20031;-73
2024/01/12 04:26:50;;;;;;;48.65;27.13;;;;;;;-3.47;100.00;100016.88;5067540;28;20502;-72
2024/01/12 04:29:16;;;;;;;50.78;25.20;;;;;;;-1.57;100.00;100144.56;5087564;28;20028;-76
2024/01/12 04:31:41;;;;;;;59.72;34.15;;;;;;;-3.26;100.00;100030.75;5070342;28;20484;-71
2024/01/12 04:34:07;;;;;;;60.60;32.90;;;;;;;-3.66;100.00;100016.38;5073366;28;20043;-71
2024/01/12 04:36:44;;;;;;;71.60;39.88;;;;;;;-3.53;100.00;100018.38;5090737;28;20040;-70
2024/01/12 04:39:09;;;;;;;63.65;38.50;;;;;;;-3.70;100.00;100007.13;5068855;28;20036;-73
2024/01/12 04:41:34;;;;;;;51.88;31.08;;;;;;;-3.96;100.00;99977.41;5095341;28;20042;-72
2024/01/12 04:44:00;;;;;;;48.58;30.05;;;;;;;-4.16;100.00;99969.34;5077076;28;20462;-70
2024/01/12 04:46:26;;;;;;;52.40;29.98;;;;;;;-4.14;100.00;99942.94;5094376;28;20044;-70
2024/01/12 04:48:51;;;;;;;48.90;29.38;;;;;;;-4.08;100.00;99967.94;5091189;27;20053;-73
2024/01/12 04:51:17;;;;;;;50.42;27.83;;;;;;;-4.07;100.00;99961.34;5095528;27;20410;-74
2024/01/12 04:53:43;;;;;;;49.78;28.23;;;;;;;-3.58;100.00;100026.50;5116490;27;20409;-73
2024/01/12 04:56:08;;;;;;;46.15;28.20;;;;;;;-3.71;100.00;100003.00;5114737;27;20039;-70
2024/01/12 04:58:33;;;;;;;49.03;27.27;;;;;;;-3.78;100.00;100020.97;5096219;28;20114;-71
2024/01/12 05:00:59;;;;;;;47.65;28.60;;;;;;;-3.64;100.00;100017.25;5116958;27;20030;-71
2024/01/12 05:03:24;;;;;;;48.00;28.48;;;;;;;-3.61;100.00;100024.81;5117212;27;20028;-70
2024/01/12 05:05:50;;;;;;;51.65;29.23;;;;;;;-3.25;100.00;100062.25;5117075;27;20039;-71
2024/01/12 05:08:15;;;;;;;52.72;30.75;;;;;;;-3.47;100.00;100041.72;5097851;28;20118;-70
2024/01/12 05:10:40;;;;;;;54.00;30.67;;;;;;;-3.39;100.00;100083.38;5113932;27;20028;-71
2024/01/12 05:13:06;;;;;;;52.10;29.40;;;;;;;-3.26;100.00;100099.47;5116253;27;20469;-68
2024/01/12 05:15:31;;;;;;;49.72;29.52;;;;;;;-3.08;100.00;100113.28;5094957;27;20447;-70
2024/01/12 05:17:57;;;;;;;50.40;30.38;;;;;;;-3.41;100.00;100112.31;5115487;27;20035;-71
2024/01/12 05:20:22;;;;;;;53.30;31.40;;;;;;;-3.61;100.00;100068.66;5116871;27;20107;-69
2024/01/12 05:22:47;;;;;;;56.63;33.15;;;;;;;-3.53;100.00;100102.00;5117607;27;20132;-70
2024/01/12 05:25:13;;;;;;;59.83;34.33;;;;;;;-3.44;100.00;100097.28;5114854;27;20031;-70
2024/01/12 05:27:38;;;;;;;68.25;40.22;;;;;;;-3.57;100.00;100073.75;5116415;27;20506;-71
2024/01/12 05:30:05;;;;;;;75.10;44.40;;;;;;;-3.08;100.00;100097.50;5094650;28;20024;-69
2024/01/12 05:32:31;;;;;;;78.75;45.35;;;;;;;-3.61;100.00;100088.50;5096609;27;20506;-68
2024/01/12 05:34:56;;;;;;;80.82;48.42;;;;;;;-3.46;100.00;100071.56;5096687;27;20035;-73
2024/01/12 05:37:22;;;;;;;77.80;46.30;;;;;;;-3.24;100.00;100131.03;5097665;28;20501;-69
2024/01/12 05:39:47;;;;;;;63.28;36.17;;;;;;;-4.09;100.00;100069.63;5116038;27;20489;-69
2024/01/12 05:42:14;;;;;;;64.40;37.83;;;;;;;-4.39;100.00;100037.25;5115836;27;20085;-73
2024/01/12 05:44:39;;;;;;;53.17;30.92;;;;;;;-3.93;100.00;100094.97;5106568;27;20558;-70
2024/01/12 05:47:05;;;;;;;55.97;31.75;;;;;;;-3.82;100.00;100070.47;5109784;27;20027;-69
2024/01/12 05:49:30;;;;;;;57.60;30.38;;;;;;;-3.71;100.00;100089.88;5121746;27;20028;-70
2024/01/12 05:51:56;;;;;;;53.97;27.63;;;;;;;-2.54;100.00;100173.63;5114537;27;20105;-72
2024/01/12 05:54:22;;;;;;;53.47;29.45;;;;;;;-3.78;100.00;100142.63;5116430;27;20088;-71
2024/01/12 05:56:47;;;;;;;53.08;31.52;;;;;;;-3.21;100.00;100167.56;5105390;27;20080;-70
2024/01/12 05:59:13;;;;;;;49.88;28.67;;;;;;;-3.51;100.00;100133.53;5099955;27;20413;-71
2024/01/12 06:01:39;;;;;;;89.20;45.22;;;;;;;-3.47;100.00;100191.59;5103207;28;20023;-71
2024/01/12 06:04:04;;;;;;;87.85;47.50;;;;;;;-3.96;100.00;100084.94;5121765;27;20448;-70
2024/01/12 06:06:29;;;;;;;72.85;41.72;;;;;;;-3.83;100.00;100114.34;5121160;27;20095;-77
2024/01/12 06:08:55;;;;;;;63.70;38.88;;;;;;;-3.98;100.00;100127.91;5100119;27;20050;-73
2024/01/12 06:11:20;;;;;;;73.63;45.03;;;;;;;-3.70;100.00;100197.47;5102823;27;20398;-74
2024/01/12 06:13:46;;;;;;;65.03;40.05;;;;;;;-3.86;100.00;100148.97;5118373;27;20034;-71
2024/01/12 06:16:11;;;;;;;74.28;40.75;;;;;;;-3.46;100.00;100189.94;5124617;27;20036;-74
2024/01/12 06:18:37;;;;;;;58.25;34.13;;;;;;;-3.15;100.00;100212.47;5098768;27;20492;-73
2024/01/12 06:21:02;;;;;;;45.85;28.42;;;;;;;-2.93;100.00;100220.59;5102831;27;20059;-71
2024/01/12 06:23:28;;;;;;;38.53;22.27;;;;;;;-1.92;100.00;100293.13;5101999;27;20031;-71
2024/01/12 06:25:53;;;;;;;29.35;15.70;;;;;;;-0.39;100.00;100396.66;5118814;27;20027;-71
2024/01/12 06:28:18;;;;;;;22.95;12.85;;;;;;;0.33;100.00;100387.38;5124680;27;20081;-77
2024/01/12 06:30:44;;;;;;;19.38;11.43;;;;;;;0.59;100.00;100419.56;5124650;27;20478;-71
2024/01/12 06:33:14;;;;;;;13.30;7.43;;;;;;;1.41;100.00;100426.84;5119615;27;20046;-71
2024/01/12 06:35:39;;;;;;;11.27;6.40;;;;;;;1.02;100.00;100331.09;5101613;27;20035;-72
2024/01/12 06:38:04;;;;;;;11.07;6.50;;;;;;;1.44;100.00;100350.91;5123416;27;20035;-73
2024/01/12 06:40:31;;;;;;;12.05;6.97;;;;;;;1.33;100.00;100323.22;5097935;28;20023;-71
2024/01/12 06:42:56;;;;;;;11.57;8.07;;;;;;;1.46;100.00;100287.50;5118308;27;20042;-72
2024/01/12 06:45:22;;;;;;;12.48;8.27;;;;;;;1.88;100.00;100291.38;5118265;27;20486;-72
2024/01/12 06:47:47;;;;;;;12.70;8.23;;;;;;;1.77;100.00;100231.94;5118001;27;20101;-73
2024/01/12 06:50:12;;;;;;;15.00;9.85;;;;;;;2.41;100.00;100265.19;5137775;27;20416;-73
2024/01/12 06:52:38;;;;;;;16.88;11.07;;;;;;;2.67;100.00;100212.72;5102898;27;20096;-71
2024/01/12 06:55:04;;;;;;;19.40;11.65;;;;;;;4.05;100.00;100275.41;5118907;27;20027;-73
2024/01/12 06:57:30;;;;;;;18.88;11.68;;;;;;;1.73;100.00;100052.34;5118976;27;20573;-72
2024/01/12 06:59:55;;;;;;;23.77;15.02;;;;;;;0.47;100.00;99966.81;5100875;27;20035;-72
2024/01/12 07:02:21;;;;;;;29.58;19.25;;;;;;;0.51;100.00;99937.66;5102177;27;20066;-74
2024/01/12 07:04:46;;;;;;;37.83;22.98;;;;;;;0.04;100.00;99881.28;5123261;27;20034;-73
2024/01/12 07:07:11;;;;;;;37.33;24.30;;;;;;;-0.14;100.00;99857.75;5118180;27;20031;-73
2024/01/12 07:09:37;;;;;;;45.22;29.05;;;;;;;-0.06;100.00;99863.69;5120006;27;20457;-73
2024/01/12 07:12:03;;;;;;;41.65;27.90;;;;;;;-0.20;100.00;99830.19;5106293;28;20043;-73
2024/01/12 07:14:29;;;;;;;39.40;26.00;;;;;;;-0.41;100.00;99794.97;5103359;28;20032;-72
2024/01/12 07:16:59;;;;;;;47.22;30.05;;;;;;;-0.14;100.00;99839.44;5094615;28;20028;-72
2024/01/12 07:19:24;;;;;;;36.03;24.75;;;;;;;-0.62;100.00;99779.75;5083885;28;20103;-71
2024/01/12 07:21:50;;;;;;;34.08;23.63;;;;;;;0.00;100.00;99868.75;5070508;28;20158;-72
2024/01/12 07:24:15;;;;;;;37.28;24.73;;;;;;;-0.42;100.00;99828.28;5070452;28;20028;-71
2024/01/12 07:26:41;;;;;;;32.85;21.20;;;;;;;-0.32;100.00;99807.56;5070608;28;20115;-71
2024/01/12 07:29:06;;;;;;;29.95;20.70;;;;;;;0.15;100.00;99857.25;5089013;28;20097;-72
2024/01/12 07:31:35;;;;;;;34.90;22.95;;;;;;;0.12;100.00;99839.75;5070230;28;20525;-71
2024/01/12 07:34:01;;;;;;;34.33;21.00;;;;;;;0.12;100.00;99832.25;5088856;28;20110;-72
2024/01/12 07:36:26;;;;;;;41.70;27.00;;;;;;;-0.16;100.00;99796.94;5088474;28;20107;-70
2024/01/12 07:38:51;;;;;;;42.30;28.88;;;;;;;-0.03;100.00;99811.28;5070301;28;20035;-70
2024/01/12 07:41:17;;;;;;;29.80;19.27;;;;;;;0.11;100.00;99836.41;5088411;28;20075;-70
2024/01/12 07:43:42;;;;;;;28.25;18.48;;;;;;;0.36;100.00;99845.00;5088836;28;20047;-70
2024/01/12 07:46:08;;;;;;;32.95;20.02;;;;;;;0.25;100.00;99797.41;5069958;28;20032;-71
2024/01/12 07:48:34;;;;;;;29.30;19.27;;;;;;;0.68;100.00;99808.63;5087905;28;20024;-74
2024/01/12 07:50:59;;;;;;;32.85;21.50;;;;;;;0.93;100.00;99810.53;5069224;28;20032;-72
2024/01/12 07:53:25;;;;;;;35.83;22.88;;;;;;;0.88;100.00;99787.13;5087688;28;20500;-72
2024/01/12 07:55:52;;;;;;;37.03;23.10;;;;;;;1.44;100.00;99837.56;5087623;28;20085;-72
2024/01/12 07:58:19;;;;;;;34.00;21.38;;;;;;;1.42;100.00;99822.56;5088642;28;20587;-73
2024/01/12 08:00:45;;;;;;;32.53;20.85;;;;;;;2.41;100.00;99878.94;5088635;28;20130;-72
2024/01/12 08:03:10;;;;;;;63.70;31.67;;;;;;;2.26;100.00;99823.72;5087594;28;20137;-72
2024/01/12 08:05:36;;;;;;;30.25;18.60;;;;;;;2.18;100.00;99847.97;5085993;28;20036;-72
2024/01/12 08:08:02;;;;;;;28.20;18.33;;;;;;;2.30;100.00;99817.88;5090395;28;20058;-73
2024/01/12 08:10:27;;;;;;;150.38;50.22;;;;;;;1.90;100.00;99789.38;5073894;28;20482;-70
2024/01/12 08:12:53;;;;;;;30.98;19.55;;;;;;;2.42;100.00;99807.88;5073845;28;20044;-70
2024/01/12 08:15:18;;;;;;;19.95;13.88;;;;;;;2.13;100.00;99789.44;5091976;28;20536;-72
2024/01/12 08:17:43;;;;;;;17.27;11.88;;;;;;;2.05;100.00;99748.47;5091067;28;20063;-72
2024/01/12 08:20:10;;;;;;;21.10;13.43;;;;;;;2.16;100.00;99781.94;5073711;28;20024;-71
2024/01/12 08:22:35;;;;;;;20.77;14.10;;;;;;;1.98;100.00;99744.28;5089778;28;20056;-71
2024/01/12 08:25:00;;;;;;;23.30;15.48;;;;;;;2.33;100.00;99816.25;5091069;28;20414;-71
2024/01/12 08:27:26;;;;;;;29.20;18.63;;;;;;;2.64;100.00;99814.59;5091121;28;20039;-70
2024/01/12 08:29:52;;;;;;;36.85;20.73;;;;;;;2.49;100.00;99792.03;5073573;28;20561;-72
2024/01/12 08:32:17;;;;;;;29.98;18.27;;;;;;;2.56;100.00;99793.69;5073262;28;20039;-73
2024/01/12 08:34:43;;;;;;;24.98;16.52;;;;;;;1.99;100.00;99738.44;5091026;28;20028;-71
2024/01/12 08:37:08;;;;;;;29.60;20.17;;;;;;;2.32;100.00;99771.94;5073123;28;20077;-71
2024/01/12 08:39:34;;;;;;;28.92;20.33;;;;;;;1.95;100.00;99730.09;5091603;28;20036;-71
2024/01/12 08:41:59;;;;;;;32.13;20.70;;;;;;;1.76;100.00;99746.72;5073161;28;20037;-70
2024/01/12 08:44:25;;;;;;;30.00;19.85;;;;;;;1.90;100.00;99754.31;5090926;28;20035;-71
2024/01/12 08:46:53;;;;;;;32.35;21.00;;;;;;;1.71;100.00;99697.44;5090263;28;20032;-71
2024/01/12 08:49:20;;;;;;;32.80;21.20;;;;;;;2.06;100.00;99700.84;5090860;28;20028;-75
2024/01/12 08:51:47;;;;;;;29.08;20.50;;;;;;;2.22;100.00;99746.88;5072302;28;20024;-72
2024/01/12 08:54:13;;;;;;;28.52;18.05;;;;;;;2.48;100.00;99743.53;5090640;28;20093;-71
2024/01/12 08:56:38;;;;;;;58.13;32.67;;;;;;;2.67;100.00;99741.88;5072806;28;20051;-74
2024/01/12 08:59:04;;;;;;;36.10;21.52;;;;;;;2.80;100.00;99728.47;5072265;28;20497;-75
2024/01/12 09:01:29;;;;;;;27.30;16.88;;;;;;;3.21;100.00;99751.81;5091142;28;20509;-72
2024/01/12 09:03:55;;;;;;;17.92;10.85;;;;;;;3.26;100.00;99745.13;5072800;28;20031;-76
2024/01/12 09:06:23;;;;;;;23.70;15.07;;;;;;;3.48;100.00;99741.72;5091098;28;20036;-72
2024/01/12 09:08:49;;;;;;;18.85;10.35;;;;;;;3.69;100.00;99735.75;5091587;28;20024;-72
2024/01/12 09:11:14;;;;;;;17.67;11.75;;;;;;;3.54;100.00;99741.66;5072689;28;20430;-72
2024/01/12 09:13:40;;;;;;;22.10;15.90;;;;;;;3.38;100.00;99722.50;5072562;28;20028;-72
2024/01/12 09:16:08;;;;;;;22.75;15.85;;;;;;;3.16;100.00;99680.69;5072590;28;20118;-71
2024/01/12 09:18:33;;;;;;;22.73;15.18;;;;;;;2.95;100.00;99693.28;5089959;28;20040;-76
2024/01/12 09:20:58;;;;;;;19.98;14.00;;;;;;;3.15;100.00;99681.53;5091549;28;20093;-71
2024/01/12 09:23:24;;;;;;;21.10;13.38;;;;;;;2.92;100.00;99663.19;5090911;28;20501;-71
2024/01/12 09:25:52;;;;;;;21.02;13.73;;;;;;;3.04;100.00;99633.03;5090679;28;20035;-71
2024/01/12 09:28:17;;;;;;;19.50;12.40;;;;;;;3.20;100.00;99679.84;5090843;28;20097;-70
2024/01/12 09:30:44;;;;;;;18.58;11.43;;;;;;;3.04;100.00;99643.09;5069610;28;20027;-70
2024/01/12 09:33:09;;;;;;;22.02;13.02;;;;;;;3.15;100.00;99626.28;5086198;28;20142;-74
2024/01/12 09:35:35;;;;;;;21.80;11.20;;;;;;;3.73;100.00;99688.81;5072037;28;20032;-71
2024/01/12 09:38:00;;;;;;;12.15;8.00;;;;;;;3.13;100.00;99630.47;5090791;28;20024;-71
2024/01/12 09:40:26;;;;;;;21.67;15.95;;;;;;;3.71;100.00;99671.22;5090720;28;20043;-72
2024/01/12 09:42:54;;;;;;;22.85;17.88;;;;;;;3.29;100.00;99689.84;5090884;28;20024;-71
2024/01/12 09:45:22;;;;;;;19.67;12.48;;;;;;;3.61;100.00;99673.78;5072325;28;20115;-71
2024/01/12 09:47:47;;;;;;;12.95;8.85;;;;;;;3.80;100.00;99665.34;5090060;28;20036;-70
2024/01/12 09:50:13;;;;;;;18.73;11.07;;;;;;;3.48;100.00;99660.47;5090357;28;20031;-70
2024/01/12 09:52:39;;;;;;;20.38;12.27;;;;;;;3.65;100.00;99667.91;5071749;28;20028;-72
2024/01/12 09:55:06;;;;;;;21.27;13.02;;;;;;;3.37;100.00;99655.50;5090098;28;20028;-71
2024/01/12 09:57:35;;;;;;;19.50;13.15;;;;;;;3.27;100.00;99626.25;5090121;28;20028;-71
2024/01/12 10:00:05;;;;;;;22.30;13.43;;;;;;;3.63;100.00;99693.06;5090351;28;20493;-74
2024/01/12 10:02:30;;;;;;;22.08;11.65;;;;;;;3.20;100.00;99651.38;5071465;28;20028;-71
2024/01/12 10:04:55;;;;;;;22.52;12.90;;;;;;;2.99;100.00;99638.91;5090362;28;20039;-71
2024/01/12 10:07:21;;;;;;;17.00;10.02;;;;;;;3.19;100.00;99672.34;5089953;28;20067;-70
2024/01/12 10:09:46;;;;;;;12.18;7.90;;;;;;;2.94;100.00;99643.09;5071613;28;20116;-70
2024/01/12 10:12:12;;;;;;;14.45;10.25;;;;;;;3.61;100.00;99726.56;5071679;28;20072;-70
2024/01/12 10:14:37;;;;;;;16.65;9.88;;;;;;;3.70;100.00;99729.91;5089917;28;20461;-70
2024/01/12 10:17:03;;;;;;;20.67;12.15;;;;;;;3.57;100.00;99697.25;5089124;28;20040;-71
2024/01/12 10:19:28;;;;;;;14.18;9.05;;;;;;;3.53;100.00;99719.91;5071539;28;20032;-71
2024/01/12 10:21:54;;;;;;;13.55;8.90;;;;;;;3.86;100.00;99748.25;5090742;28;20032;-72
2024/01/12 10:24:21;;;;;;;14.10;7.65;;;;;;;3.56;100.00;99753.41;5089270;28;20028;-72
2024/01/12 10:26:47;;;;;;;10.95;7.30;;;;;;;3.66;100.00;99773.47;5090092;28;20020;-74
2024/01/12 10:29:14;;;;;;;12.27;7.80;;;;;;;3.51;100.00;99760.94;5088916;28;20062;-71
2024/01/12 10:31:44;;;;;;;12.32;7.32;;;;;;;3.76;100.00;99811.97;5070668;28;20036;-71
2024/01/12 10:34:11;;;;;;;9.82;6.82;;;;;;;3.14;100.00;99767.75;5072097;28;20028;-73
2024/01/12 10:36:38;;;;;;;11.13;7.00;;;;;;;3.42;100.00;99791.97;5089307;28;20056;-74
2024/01/12 10:39:09;;;;;;;10.95;7.70;;;;;;;3.77;100.00;99854.69;5072131;28;20505;-71
2024/01/12 10:41:35;;;;;;;11.52;6.70;;;;;;;3.70;100.00;99855.56;5089591;28;20032;-72
2024/01/12 10:44:05;;;;;;;11.18;7.43;;;;;;;4.20;100.00;99885.53;5088637;28;20508;-72
2024/01/12 10:46:36;;;;;;;12.80;7.57;;;;;;;3.72;100.00;99810.31;5071201;28;20027;-71
2024/01/12 10:49:17;;;;;;;12.82;8.38;;;;;;;3.98;100.00;99878.94;5088448;28;20475;-70
2024/01/12 10:51:49;;;;;;;;;;;;;;;3.97;100.00;99887.31;5089595;28;20066;-70
2024/01/12 10:54:23;;;;;;;12.55;7.90;;;;;;;4.07;100.00;99888.97;5088967;28;19922;-70
2024/01/12 10:56:49;;;;;;;13.80;9.15;;;;;;;3.86;100.00;99843.78;5091512;28;20040;-73
2024/01/12 10:59:15;;;;;;;13.10;8.52;;;;;;;3.75;100.00;99861.41;5073429;28;20024;-70
2024/01/12 11:01:41;;;;;;;14.70;7.90;;;;;;;4.03;100.00;99922.50;5070565;28;20663;-70
2024/01/12 11:04:07;;;;;;;17.80;9.73;;;;;;;4.17;100.00;99920.78;5089242;28;20462;-71